sensor_id;sensor_type;location;lat;lon;timestamp;P1;P2;P0
47982;PMS5003;33751;50.816;-1.214;2022-08-11T00:00:19;4;4;
47982;PMS5003;33751;50.816;-1.214;2022-08-11T00:02:47;4;4;
47982;PMS5003;33751;50.816;-1.214;2022-08-11T00:05:17;4;4;
47982;PMS5003;33751;50.816;-1.214;2022-08-11T00:07:47;5;4;
47982;PMS5003;33751;50.816;-1.214;2022-08-11T00:10:17;3;3;
47982;PMS5003;33751;50.816;-1.214;2022-08-11T00:12:49;4;4;
47982;PMS5003;33751;50.816;-1.214;2022-08-11T00:15:18;3;3;
47982;PMS5003;33751;50.816;-1.214;2022-08-11T00:17:46;4;4;
47982;PMS5003;33751;50.816;-1.214;2022-08-11T00:20:14;2;2;
47982;PMS5003;33751;50.816;-1.214;2022-08-11T00:22:44;6;3;
47982;PMS5003;33751;50.816;-1.214;2022-08-11T00:25:14;3;3;
47982;PMS5003;33751;50.816;-1.214;2022-08-11T00:27:42;4;4;
47982;PMS5003;33751;50.816;-1.214;2022-08-11T00:30:10;2;2;
47982;PMS5003;33751;50.816;-1.214;2022-08-11T00:32:38;4;4;
47982;PMS5003;33751;50.816;-1.214;2022-08-11T00:35:09;2;2;
47982;PMS5003;33751;50.816;-1.214;2022-08-11T00:37:39;5;4;
47982;PMS5003;33751;50.816;-1.214;2022-08-11T00:40:14;5;5;
47982;PMS5003;33751;50.816;-1.214;2022-08-11T00:42:52;6;6;
47982;PMS5003;33751;50.816;-1.214;2022-08-11T00:45:28;7;5;
47982;PMS5003;33751;50.816;-1.214;2022-08-11T00:48:02;8;6;
47982;PMS5003;33751;50.816;-1.214;2022-08-11T00:50:44;8;8;
47982;PMS5003;33751;50.816;-1.214;2022-08-11T00:53:36;10;10;
47982;PMS5003;33751;50.816;-1.214;2022-08-11T00:56:17;11;11;
47982;PMS5003;33751;50.816;-1.214;2022-08-11T00:59:47;10;10;
47982;PMS5003;33751;50.816;-1.214;2022-08-11T01:02:41;12;10;
47982;PMS5003;33751;50.816;-1.214;2022-08-11T01:05:52;11;11;
47982;PMS5003;33751;50.816;-1.214;2022-08-11T01:08:32;15;15;
47982;PMS5003;33751;50.816;-1.214;2022-08-11T01:11:19;14;14;
47982;PMS5003;33751;50.816;-1.214;2022-08-11T01:14:21;12;12;
47982;PMS5003;33751;50.816;-1.214;2022-08-11T01:17:04;15;15;
47982;PMS5003;33751;50.816;-1.214;2022-08-11T01:20:05;16;16;
47982;PMS5003;33751;50.816;-1.214;2022-08-11T01:24:39;17;17;
47982;PMS5003;33751;50.816;-1.214;2022-08-11T01:27:26;18;18;
47982;PMS5003;33751;50.816;-1.214;2022-08-11T01:30:19;17;17;
47982;PMS5003;33751;50.816;-1.214;2022-08-11T01:33:56;17;17;
47982;PMS5003;33751;50.816;-1.214;2022-08-11T01:36:49;21;21;
47982;PMS5003;33751;50.816;-1.214;2022-08-11T01:39:39;14;14;
47982;PMS5003;33751;50.816;-1.214;2022-08-11T01:43:00;15;15;
47982;PMS5003;33751;50.816;-1.214;2022-08-11T01:45:39;17;17;
47982;PMS5003;33751;50.816;-1.214;2022-08-11T01:48:14;17;17;
47982;PMS5003;33751;50.816;-1.214;2022-08-11T01:50:52;15;15;
47982;PMS5003;33751;50.816;-1.214;2022-08-11T01:53:33;16;16;
47982;PMS5003;33751;50.816;-1.214;2022-08-11T01:56:14;16;16;
47982;PMS5003;33751;50.816;-1.214;2022-08-11T01:58:54;21;21;
47982;PMS5003;33751;50.816;-1.214;2022-08-11T02:01:36;17;17;
47982;PMS5003;33751;50.816;-1.214;2022-08-11T02:04:10;20;20;
47982;PMS5003;33751;50.816;-1.214;2022-08-11T02:06:49;19;17;
47982;PMS5003;33751;50.816;-1.214;2022-08-11T02:09:24;19;19;
47982;PMS5003;33751;50.816;-1.214;2022-08-11T02:12:00;21;21;
47982;PMS5003;33751;50.816;-1.214;2022-08-11T02:14:36;22;21;
47982;PMS5003;33751;50.816;-1.214;2022-08-11T02:17:11;18;17;
47982;PMS5003;33751;50.816;-1.214;2022-08-11T02:19:46;21;20;
47982;PMS5003;33751;50.816;-1.214;2022-08-11T02:22:22;26;18;
47982;PMS5003;33751;50.816;-1.214;2022-08-11T02:24:57;21;21;
47982;PMS5003;33751;50.816;-1.214;2022-08-11T02:27:31;16;16;
47982;PMS5003;33751;50.816;-1.214;2022-08-11T02:30:07;17;17;
47982;PMS5003;33751;50.816;-1.214;2022-08-11T02:32:40;16;15;
47982;PMS5003;33751;50.816;-1.214;2022-08-11T02:35:17;18;18;
47982;PMS5003;33751;50.816;-1.214;2022-08-11T02:37:49;16;15;
47982;PMS5003;33751;50.816;-1.214;2022-08-11T02:40:28;18;18;
47982;PMS5003;33751;50.816;-1.214;2022-08-11T02:43:07;30;19;
47982;PMS5003;33751;50.816;-1.214;2022-08-11T02:45:45;18;18;
47982;PMS5003;33751;50.816;-1.214;2022-08-11T02:48:21;17;17;
47982;PMS5003;33751;50.816;-1.214;2022-08-11T02:51:02;31;21;
47982;PMS5003;33751;50.816;-1.214;2022-08-11T02:53:42;16;15;
47982;PMS5003;33751;50.816;-1.214;2022-08-11T02:56:18;21;20;
47982;PMS5003;33751;50.816;-1.214;2022-08-11T02:58:54;32;19;
47982;PMS5003;33751;50.816;-1.214;2022-08-11T03:01:27;18;18;
47982;PMS5003;33751;50.816;-1.214;2022-08-11T03:04:09;18;18;
47982;PMS5003;33751;50.816;-1.214;2022-08-11T03:06:46;19;15;
47982;PMS5003;33751;50.816;-1.214;2022-08-11T03:09:18;31;20;
47982;PMS5003;33751;50.816;-1.214;2022-08-11T03:11:54;27;16;
47982;PMS5003;33751;50.816;-1.214;2022-08-11T03:14:31;18;17;
47982;PMS5003;33751;50.816;-1.214;2022-08-11T03:17:09;23;21;
47982;PMS5003;33751;50.816;-1.214;2022-08-11T03:19:52;18;18;
47982;PMS5003;33751;50.816;-1.214;2022-08-11T03:22:29;23;20;
47982;PMS5003;33751;50.816;-1.214;2022-08-11T03:25:02;19;18;
47982;PMS5003;33751;50.816;-1.214;2022-08-11T03:27:38;21;18;
47982;PMS5003;33751;50.816;-1.214;2022-08-11T03:30:14;20;19;
47982;PMS5003;33751;50.816;-1.214;2022-08-11T03:33:18;15;15;
47982;PMS5003;33751;50.816;-1.214;2022-08-11T03:35:53;16;16;
47982;PMS5003;33751;50.816;-1.214;2022-08-11T03:38:32;13;13;
47982;PMS5003;33751;50.816;-1.214;2022-08-11T03:41:17;13;13;
47982;PMS5003;33751;50.816;-1.214;2022-08-11T03:43:54;15;15;
47982;PMS5003;33751;50.816;-1.214;2022-08-11T03:46:35;27;20;
47982;PMS5003;33751;50.816;-1.214;2022-08-11T03:49:18;17;17;
47982;PMS5003;33751;50.816;-1.214;2022-08-11T03:51:55;15;15;
47982;PMS5003;33751;50.816;-1.214;2022-08-11T03:54:35;15;15;
47982;PMS5003;33751;50.816;-1.214;2022-08-11T03:57:47;16;16;
47982;PMS5003;33751;50.816;-1.214;2022-08-11T04:00:39;22;17;
47982;PMS5003;33751;50.816;-1.214;2022-08-11T04:03:25;13;13;
47982;PMS5003;33751;50.816;-1.214;2022-08-11T04:06:13;14;14;
47982;PMS5003;33751;50.816;-1.214;2022-08-11T04:09:23;13;13;
47982;PMS5003;33751;50.816;-1.214;2022-08-11T04:12:27;13;13;
47982;PMS5003;33751;50.816;-1.214;2022-08-11T04:15:12;16;14;
47982;PMS5003;33751;50.816;-1.214;2022-08-11T04:18:02;15;15;
47982;PMS5003;33751;50.816;-1.214;2022-08-11T04:20:48;13;13;
47982;PMS5003;33751;50.816;-1.214;2022-08-11T04:23:24;15;15;
47982;PMS5003;33751;50.816;-1.214;2022-08-11T04:26:19;15;15;
47982;PMS5003;33751;50.816;-1.214;2022-08-11T04:29:37;15;13;
47982;PMS5003;33751;50.816;-1.214;2022-08-11T04:32:23;13;13;
47982;PMS5003;33751;50.816;-1.214;2022-08-11T04:35:11;14;14;
47982;PMS5003;33751;50.816;-1.214;2022-08-11T04:37:56;16;16;
47982;PMS5003;33751;50.816;-1.214;2022-08-11T04:40:48;21;14;
47982;PMS5003;33751;50.816;-1.214;2022-08-11T04:43:44;10;10;
47982;PMS5003;33751;50.816;-1.214;2022-08-11T04:46:47;13;13;
47982;PMS5003;33751;50.816;-1.214;2022-08-11T04:50:01;12;12;
47982;PMS5003;33751;50.816;-1.214;2022-08-11T04:53:04;12;12;
47982;PMS5003;33751;50.816;-1.214;2022-08-11T04:55:46;10;10;
47982;PMS5003;33751;50.816;-1.214;2022-08-11T04:58:34;22;10;
47982;PMS5003;33751;50.816;-1.214;2022-08-11T05:01:17;19;11;
47982;PMS5003;33751;50.816;-1.214;2022-08-11T05:04:02;12;12;
47982;PMS5003;33751;50.816;-1.214;2022-08-11T05:06:48;11;10;
47982;PMS5003;33751;50.816;-1.214;2022-08-11T05:09:43;9;9;
47982;PMS5003;33751;50.816;-1.214;2022-08-11T05:12:28;21;11;
47982;PMS5003;33751;50.816;-1.214;2022-08-11T05:15:01;6;6;
47982;PMS5003;33751;50.816;-1.214;2022-08-11T05:17:33;10;10;
47982;PMS5003;33751;50.816;-1.214;2022-08-11T05:20:07;13;12;
47982;PMS5003;33751;50.816;-1.214;2022-08-11T05:22:36;10;10;
47982;PMS5003;33751;50.816;-1.214;2022-08-11T05:25:14;9;9;
47982;PMS5003;33751;50.816;-1.214;2022-08-11T05:27:44;12;12;
47982;PMS5003;33751;50.816;-1.214;2022-08-11T05:30:16;11;11;
47982;PMS5003;33751;50.816;-1.214;2022-08-11T05:32:44;12;12;
47982;PMS5003;33751;50.816;-1.214;2022-08-11T05:35:17;17;14;
47982;PMS5003;33751;50.816;-1.214;2022-08-11T05:37:52;14;12;
47982;PMS5003;33751;50.816;-1.214;2022-08-11T05:40:20;21;10;
47982;PMS5003;33751;50.816;-1.214;2022-08-11T05:42:48;18;17;
47982;PMS5003;33751;50.816;-1.214;2022-08-11T05:45:19;13;13;
47982;PMS5003;33751;50.816;-1.214;2022-08-11T05:47:47;14;14;
47982;PMS5003;33751;50.816;-1.214;2022-08-11T05:50:15;23;17;
47982;PMS5003;33751;50.816;-1.214;2022-08-11T05:52:45;18;18;
47982;PMS5003;33751;50.816;-1.214;2022-08-11T05:55:12;23;16;
47982;PMS5003;33751;50.816;-1.214;2022-08-11T05:57:41;20;20;
47982;PMS5003;33751;50.816;-1.214;2022-08-11T06:00:09;16;15;
47982;PMS5003;33751;50.816;-1.214;2022-08-11T06:02:40;19;19;
47982;PMS5003;33751;50.816;-1.214;2022-08-11T06:05:10;17;17;
47982;PMS5003;33751;50.816;-1.214;2022-08-11T06:07:37;20;20;
47982;PMS5003;33751;50.816;-1.214;2022-08-11T06:10:05;18;18;
47982;PMS5003;33751;50.816;-1.214;2022-08-11T06:12:33;16;16;
47982;PMS5003;33751;50.816;-1.214;2022-08-11T06:15:02;20;20;
47982;PMS5003;33751;50.816;-1.214;2022-08-11T06:17:31;18;18;
47982;PMS5003;33751;50.816;-1.214;2022-08-11T06:20:02;15;13;
47982;PMS5003;33751;50.816;-1.214;2022-08-11T06:22:31;12;12;
47982;PMS5003;33751;50.816;-1.214;2022-08-11T06:25:00;82;78;
47982;PMS5003;33751;50.816;-1.214;2022-08-11T06:27:29;86;74;
47982;PMS5003;33751;50.816;-1.214;2022-08-11T06:29:59;62;52;
47982;PMS5003;33751;50.816;-1.214;2022-08-11T06:32:30;51;40;
47982;PMS5003;33751;50.816;-1.214;2022-08-11T06:35:04;39;31;
47982;PMS5003;33751;50.816;-1.214;2022-08-11T06:37:40;19;19;
47982;PMS5003;33751;50.816;-1.214;2022-08-11T06:40:19;26;14;
47982;PMS5003;33751;50.816;-1.214;2022-08-11T06:42:56;15;15;
47982;PMS5003;33751;50.816;-1.214;2022-08-11T06:45:29;14;14;
47982;PMS5003;33751;50.816;-1.214;2022-08-11T06:48:02;21;17;
47982;PMS5003;33751;50.816;-1.214;2022-08-11T06:50:30;18;18;
47982;PMS5003;33751;50.816;-1.214;2022-08-11T06:52:58;17;17;
47982;PMS5003;33751;50.816;-1.214;2022-08-11T06:55:26;18;17;
47982;PMS5003;33751;50.816;-1.214;2022-08-11T06:57:55;19;18;
47982;PMS5003;33751;50.816;-1.214;2022-08-11T07:00:23;17;15;
47982;PMS5003;33751;50.816;-1.214;2022-08-11T07:02:54;17;17;
47982;PMS5003;33751;50.816;-1.214;2022-08-11T07:05:27;22;15;
47982;PMS5003;33751;50.816;-1.214;2022-08-11T07:08:42;17;14;
47982;PMS5003;33751;50.816;-1.214;2022-08-11T07:11:36;19;19;
47982;PMS5003;33751;50.816;-1.214;2022-08-11T07:12:25;18;18;
47982;PMS5003;33751;50.816;-1.214;2022-08-11T07:15:05;25;24;
47982;PMS5003;33751;50.816;-1.214;2022-08-11T07:17:36;41;38;
47982;PMS5003;33751;50.816;-1.214;2022-08-11T07:20:07;45;45;
47982;PMS5003;33751;50.816;-1.214;2022-08-11T07:22:37;59;44;
47982;PMS5003;33751;50.816;-1.214;2022-08-11T07:25:08;47;36;
47982;PMS5003;33751;50.816;-1.214;2022-08-11T07:27:40;44;38;
47982;PMS5003;33751;50.816;-1.214;2022-08-11T07:30:11;30;30;
47982;PMS5003;33751;50.816;-1.214;2022-08-11T07:32:40;40;32;
47982;PMS5003;33751;50.816;-1.214;2022-08-11T07:35:15;32;26;
47982;PMS5003;33751;50.816;-1.214;2022-08-11T07:37:47;36;24;
47982;PMS5003;33751;50.816;-1.214;2022-08-11T07:40:22;23;19;
47982;PMS5003;33751;50.816;-1.214;2022-08-11T07:42:50;15;15;
47982;PMS5003;33751;50.816;-1.214;2022-08-11T07:45:19;13;11;
47982;PMS5003;33751;50.816;-1.214;2022-08-11T07:47:48;23;23;
47982;PMS5003;33751;50.816;-1.214;2022-08-11T07:50:17;16;14;
47982;PMS5003;33751;50.816;-1.214;2022-08-11T07:52:44;15;12;
47982;PMS5003;33751;50.816;-1.214;2022-08-11T07:55:12;13;12;
47982;PMS5003;33751;50.816;-1.214;2022-08-11T07:57:46;10;8;
47982;PMS5003;33751;50.816;-1.214;2022-08-11T08:00:14;7;7;
47982;PMS5003;33751;50.816;-1.214;2022-08-11T08:02:42;8;8;
47982;PMS5003;33751;50.816;-1.214;2022-08-11T08:05:10;6;6;
47982;PMS5003;33751;50.816;-1.214;2022-08-11T08:07:38;7;5;
47982;PMS5003;33751;50.816;-1.214;2022-08-11T08:10:06;7;5;
47982;PMS5003;33751;50.816;-1.214;2022-08-11T08:12:35;16;5;
47982;PMS5003;33751;50.816;-1.214;2022-08-11T08:15:04;5;5;
47982;PMS5003;33751;50.816;-1.214;2022-08-11T08:17:33;6;6;
47982;PMS5003;33751;50.816;-1.214;2022-08-11T08:20:02;8;6;
47982;PMS5003;33751;50.816;-1.214;2022-08-11T08:22:30;6;6;
47982;PMS5003;33751;50.816;-1.214;2022-08-11T08:24:57;5;5;
47982;PMS5003;33751;50.816;-1.214;2022-08-11T08:27:24;5;5;
47982;PMS5003;33751;50.816;-1.214;2022-08-11T08:29:51;5;5;
47982;PMS5003;33751;50.816;-1.214;2022-08-11T08:32:19;6;5;
47982;PMS5003;33751;50.816;-1.214;2022-08-11T08:34:46;4;4;
47982;PMS5003;33751;50.816;-1.214;2022-08-11T08:37:17;4;4;
47982;PMS5003;33751;50.816;-1.214;2022-08-11T08:39:45;7;6;
47982;PMS5003;33751;50.816;-1.214;2022-08-11T08:42:16;7;6;
47982;PMS5003;33751;50.816;-1.214;2022-08-11T08:44:50;3;3;
47982;PMS5003;33751;50.816;-1.214;2022-08-11T08:47:22;6;4;
47982;PMS5003;33751;50.816;-1.214;2022-08-11T08:49:52;3;3;
47982;PMS5003;33751;50.816;-1.214;2022-08-11T08:52:27;4;4;
47982;PMS5003;33751;50.816;-1.214;2022-08-11T08:55:00;5;5;
47982;PMS5003;33751;50.816;-1.214;2022-08-11T08:57:30;5;5;
47982;PMS5003;33751;50.816;-1.214;2022-08-11T09:00:00;6;5;
47982;PMS5003;33751;50.816;-1.214;2022-08-11T09:02:29;3;3;
47982;PMS5003;33751;50.816;-1.214;2022-08-11T09:04:56;5;5;
47982;PMS5003;33751;50.816;-1.214;2022-08-11T09:07:24;5;5;
47982;PMS5003;33751;50.816;-1.214;2022-08-11T09:09:53;4;4;
47982;PMS5003;33751;50.816;-1.214;2022-08-11T09:12:25;6;6;
47982;PMS5003;33751;50.816;-1.214;2022-08-11T09:14:54;5;5;
47982;PMS5003;33751;50.816;-1.214;2022-08-11T09:17:22;5;5;
47982;PMS5003;33751;50.816;-1.214;2022-08-11T09:19:51;3;3;
47982;PMS5003;33751;50.816;-1.214;2022-08-11T09:22:21;5;3;
47982;PMS5003;33751;50.816;-1.214;2022-08-11T09:24:49;4;4;
47982;PMS5003;33751;50.816;-1.214;2022-08-11T09:27:17;5;4;
47982;PMS5003;33751;50.816;-1.214;2022-08-11T09:29:45;5;3;
47982;PMS5003;33751;50.816;-1.214;2022-08-11T09:32:13;5;5;
47982;PMS5003;33751;50.816;-1.214;2022-08-11T09:34:40;7;7;
47982;PMS5003;33751;50.816;-1.214;2022-08-11T09:37:07;4;4;
47982;PMS5003;33751;50.816;-1.214;2022-08-11T09:39:35;5;5;
47982;PMS5003;33751;50.816;-1.214;2022-08-11T09:42:04;4;4;
47982;PMS5003;33751;50.816;-1.214;2022-08-11T09:44:33;5;3;
47982;PMS5003;33751;50.816;-1.214;2022-08-11T09:47:00;7;4;
47982;PMS5003;33751;50.816;-1.214;2022-08-11T09:49:28;5;4;
47982;PMS5003;33751;50.816;-1.214;2022-08-11T09:51:57;4;4;
47982;PMS5003;33751;50.816;-1.214;2022-08-11T09:54:25;3;3;
47982;PMS5003;33751;50.816;-1.214;2022-08-11T09:56:53;4;4;
47982;PMS5003;33751;50.816;-1.214;2022-08-11T09:59:20;2;2;
47982;PMS5003;33751;50.816;-1.214;2022-08-11T10:01:50;5;5;
47982;PMS5003;33751;50.816;-1.214;2022-08-11T10:04:23;5;5;
47982;PMS5003;33751;50.816;-1.214;2022-08-11T10:06:53;4;4;
47982;PMS5003;33751;50.816;-1.214;2022-08-11T10:09:22;5;5;
47982;PMS5003;33751;50.816;-1.214;2022-08-11T10:11:49;4;4;
47982;PMS5003;33751;50.816;-1.214;2022-08-11T10:14:20;6;4;
47982;PMS5003;33751;50.816;-1.214;2022-08-11T10:16:47;7;7;
47982;PMS5003;33751;50.816;-1.214;2022-08-11T10:19:16;5;4;
47982;PMS5003;33751;50.816;-1.214;2022-08-11T10:21:46;4;4;
47982;PMS5003;33751;50.816;-1.214;2022-08-11T10:24:16;5;5;
47982;PMS5003;33751;50.816;-1.214;2022-08-11T10:26:44;9;7;
47982;PMS5003;33751;50.816;-1.214;2022-08-11T10:29:14;6;6;
47982;PMS5003;33751;50.816;-1.214;2022-08-11T10:31:42;6;6;
47982;PMS5003;33751;50.816;-1.214;2022-08-11T10:34:11;6;6;
47982;PMS5003;33751;50.816;-1.214;2022-08-11T10:36:41;5;5;
47982;PMS5003;33751;50.816;-1.214;2022-08-11T10:39:12;6;6;
47982;PMS5003;33751;50.816;-1.214;2022-08-11T10:41:42;7;7;
47982;PMS5003;33751;50.816;-1.214;2022-08-11T10:44:10;5;5;
47982;PMS5003;33751;50.816;-1.214;2022-08-11T10:46:39;4;4;
47982;PMS5003;33751;50.816;-1.214;2022-08-11T10:49:06;7;6;
47982;PMS5003;33751;50.816;-1.214;2022-08-11T10:51:34;5;5;
47982;PMS5003;33751;50.816;-1.214;2022-08-11T10:54:01;6;5;
47982;PMS5003;33751;50.816;-1.214;2022-08-11T10:56:30;4;4;
47982;PMS5003;33751;50.816;-1.214;2022-08-11T10:59:00;6;6;
47982;PMS5003;33751;50.816;-1.214;2022-08-11T11:01:29;5;5;
47982;PMS5003;33751;50.816;-1.214;2022-08-11T11:03:59;6;6;
47982;PMS5003;33751;50.816;-1.214;2022-08-11T11:06:32;6;5;
47982;PMS5003;33751;50.816;-1.214;2022-08-11T11:09:03;4;4;
47982;PMS5003;33751;50.816;-1.214;2022-08-11T11:11:35;4;4;
47982;PMS5003;33751;50.816;-1.214;2022-08-11T11:14:03;5;4;
47982;PMS5003;33751;50.816;-1.214;2022-08-11T11:16:31;4;4;
47982;PMS5003;33751;50.816;-1.214;2022-08-11T11:19:00;8;8;
47982;PMS5003;33751;50.816;-1.214;2022-08-11T11:21:32;4;4;
47982;PMS5003;33751;50.816;-1.214;2022-08-11T11:24:02;4;4;
47982;PMS5003;33751;50.816;-1.214;2022-08-11T11:26:40;7;6;
47982;PMS5003;33751;50.816;-1.214;2022-08-11T11:29:36;7;6;
47982;PMS5003;33751;50.816;-1.214;2022-08-11T11:32:17;4;4;
47982;PMS5003;33751;50.816;-1.214;2022-08-11T11:34:59;8;8;
47982;PMS5003;33751;50.816;-1.214;2022-08-11T11:37:35;6;6;
47982;PMS5003;33751;50.816;-1.214;2022-08-11T11:40:07;6;5;
47982;PMS5003;33751;50.816;-1.214;2022-08-11T11:42:35;9;9;
47982;PMS5003;33751;50.816;-1.214;2022-08-11T11:45:02;5;5;
47982;PMS5003;33751;50.816;-1.214;2022-08-11T11:47:31;4;4;
47982;PMS5003;33751;50.816;-1.214;2022-08-11T11:49:58;5;5;
47982;PMS5003;33751;50.816;-1.214;2022-08-11T11:52:25;6;6;
47982;PMS5003;33751;50.816;-1.214;2022-08-11T11:54:54;4;4;
47982;PMS5003;33751;50.816;-1.214;2022-08-11T11:57:22;7;5;
47982;PMS5003;33751;50.816;-1.214;2022-08-11T11:59:50;5;5;
47982;PMS5003;33751;50.816;-1.214;2022-08-11T12:02:19;4;4;
47982;PMS5003;33751;50.816;-1.214;2022-08-11T12:04:46;21;7;
47982;PMS5003;33751;50.816;-1.214;2022-08-11T12:07:13;6;6;
47982;PMS5003;33751;50.816;-1.214;2022-08-11T12:09:42;8;8;
47982;PMS5003;33751;50.816;-1.214;2022-08-11T12:12:10;6;6;
47982;PMS5003;33751;50.816;-1.214;2022-08-11T12:14:36;13;12;
47982;PMS5003;33751;50.816;-1.214;2022-08-11T12:17:03;7;7;
47982;PMS5003;33751;50.816;-1.214;2022-08-11T12:19:30;8;8;
47982;PMS5003;33751;50.816;-1.214;2022-08-11T12:21:57;7;7;
47982;PMS5003;33751;50.816;-1.214;2022-08-11T12:24:25;10;9;
47982;PMS5003;33751;50.816;-1.214;2022-08-11T12:26:53;4;4;
47982;PMS5003;33751;50.816;-1.214;2022-08-11T12:29:21;8;6;
47982;PMS5003;33751;50.816;-1.214;2022-08-11T12:31:49;6;6;
47982;PMS5003;33751;50.816;-1.214;2022-08-11T12:34:16;8;8;
47982;PMS5003;33751;50.816;-1.214;2022-08-11T12:36:45;8;6;
47982;PMS5003;33751;50.816;-1.214;2022-08-11T12:39:18;7;7;
47982;PMS5003;33751;50.816;-1.214;2022-08-11T12:41:47;6;6;
47982;PMS5003;33751;50.816;-1.214;2022-08-11T12:44:15;7;7;
47982;PMS5003;33751;50.816;-1.214;2022-08-11T12:46:43;9;8;
47982;PMS5003;33751;50.816;-1.214;2022-08-11T12:49:11;18;5;
47982;PMS5003;33751;50.816;-1.214;2022-08-11T12:51:44;9;9;
47982;PMS5003;33751;50.816;-1.214;2022-08-11T12:54:16;13;8;
47982;PMS5003;33751;50.816;-1.214;2022-08-11T12:56:51;4;4;
47982;PMS5003;33751;50.816;-1.214;2022-08-11T12:59:24;9;5;
47982;PMS5003;33751;50.816;-1.214;2022-08-11T13:01:51;6;5;
47982;PMS5003;33751;50.816;-1.214;2022-08-11T13:04:19;21;8;
47982;PMS5003;33751;50.816;-1.214;2022-08-11T13:06:46;7;7;
47982;PMS5003;33751;50.816;-1.214;2022-08-11T13:09:13;11;6;
47982;PMS5003;33751;50.816;-1.214;2022-08-11T13:11:40;9;6;
47982;PMS5003;33751;50.816;-1.214;2022-08-11T13:14:07;6;6;
47982;PMS5003;33751;50.816;-1.214;2022-08-11T13:16:34;7;7;
47982;PMS5003;33751;50.816;-1.214;2022-08-11T13:19:02;7;5;
47982;PMS5003;33751;50.816;-1.214;2022-08-11T13:21:29;6;4;
47982;PMS5003;33751;50.816;-1.214;2022-08-11T13:23:57;5;5;
47982;PMS5003;33751;50.816;-1.214;2022-08-11T13:26:25;5;5;
47982;PMS5003;33751;50.816;-1.214;2022-08-11T13:28:52;5;4;
47982;PMS5003;33751;50.816;-1.214;2022-08-11T13:31:19;25;14;
47982;PMS5003;33751;50.816;-1.214;2022-08-11T13:33:47;4;4;
47982;PMS5003;33751;50.816;-1.214;2022-08-11T13:36:16;8;6;
47982;PMS5003;33751;50.816;-1.214;2022-08-11T13:38:46;5;5;
47982;PMS5003;33751;50.816;-1.214;2022-08-11T13:41:14;5;5;
47982;PMS5003;33751;50.816;-1.214;2022-08-11T13:43:43;7;7;
47982;PMS5003;33751;50.816;-1.214;2022-08-11T13:46:10;7;7;
47982;PMS5003;33751;50.816;-1.214;2022-08-11T13:48:37;25;8;
47982;PMS5003;33751;50.816;-1.214;2022-08-11T13:51:06;11;5;
47982;PMS5003;33751;50.816;-1.214;2022-08-11T13:53:34;6;6;
47982;PMS5003;33751;50.816;-1.214;2022-08-11T13:56:01;16;5;
47982;PMS5003;33751;50.816;-1.214;2022-08-11T13:58:27;6;6;
47982;PMS5003;33751;50.816;-1.214;2022-08-11T14:00:56;6;6;
47982;PMS5003;33751;50.816;-1.214;2022-08-11T14:03:25;6;6;
47982;PMS5003;33751;50.816;-1.214;2022-08-11T14:05:53;5;5;
47982;PMS5003;33751;50.816;-1.214;2022-08-11T14:08:24;27;11;
47982;PMS5003;33751;50.816;-1.214;2022-08-11T14:10:53;6;6;
47982;PMS5003;33751;50.816;-1.214;2022-08-11T14:13:25;20;9;
47982;PMS5003;33751;50.816;-1.214;2022-08-11T14:15:52;5;5;
47982;PMS5003;33751;50.816;-1.214;2022-08-11T14:18:21;11;4;
47982;PMS5003;33751;50.816;-1.214;2022-08-11T14:20:52;6;5;
47982;PMS5003;33751;50.816;-1.214;2022-08-11T14:23:23;5;5;
47982;PMS5003;33751;50.816;-1.214;2022-08-11T14:25:53;23;8;
47982;PMS5003;33751;50.816;-1.214;2022-08-11T14:28:21;4;4;
47982;PMS5003;33751;50.816;-1.214;2022-08-11T14:30:48;6;6;
47982;PMS5003;33751;50.816;-1.214;2022-08-11T14:33:15;5;5;
47982;PMS5003;33751;50.816;-1.214;2022-08-11T14:35:43;21;14;
47982;PMS5003;33751;50.816;-1.214;2022-08-11T14:38:10;6;5;
47982;PMS5003;33751;50.816;-1.214;2022-08-11T14:40:36;27;16;
47982;PMS5003;33751;50.816;-1.214;2022-08-11T14:43:03;6;6;
47982;PMS5003;33751;50.816;-1.214;2022-08-11T14:45:30;6;6;
47982;PMS5003;33751;50.816;-1.214;2022-08-11T14:47:58;6;5;
47982;PMS5003;33751;50.816;-1.214;2022-08-11T14:50:29;7;6;
47982;PMS5003;33751;50.816;-1.214;2022-08-11T14:52:58;10;7;
47982;PMS5003;33751;50.816;-1.214;2022-08-11T14:55:28;5;5;
47982;PMS5003;33751;50.816;-1.214;2022-08-11T14:57:58;7;6;
47982;PMS5003;33751;50.816;-1.214;2022-08-11T15:00:26;9;6;
47982;PMS5003;33751;50.816;-1.214;2022-08-11T15:02:53;8;8;
47982;PMS5003;33751;50.816;-1.214;2022-08-11T15:05:22;4;4;
47982;PMS5003;33751;50.816;-1.214;2022-08-11T15:07:50;9;6;
47982;PMS5003;33751;50.816;-1.214;2022-08-11T15:10:19;6;6;
47982;PMS5003;33751;50.816;-1.214;2022-08-11T15:12:46;4;4;
47982;PMS5003;33751;50.816;-1.214;2022-08-11T15:15:14;14;6;
47982;PMS5003;33751;50.816;-1.214;2022-08-11T15:17:42;5;5;
47982;PMS5003;33751;50.816;-1.214;2022-08-11T15:20:13;5;5;
47982;PMS5003;33751;50.816;-1.214;2022-08-11T15:22:47;6;5;
47982;PMS5003;33751;50.816;-1.214;2022-08-11T15:25:14;6;6;
47982;PMS5003;33751;50.816;-1.214;2022-08-11T15:27:41;7;6;
47982;PMS5003;33751;50.816;-1.214;2022-08-11T15:30:10;6;6;
47982;PMS5003;33751;50.816;-1.214;2022-08-11T15:32:37;5;5;
47982;PMS5003;33751;50.816;-1.214;2022-08-11T15:35:06;22;7;
47982;PMS5003;33751;50.816;-1.214;2022-08-11T15:37:34;6;5;
47982;PMS5003;33751;50.816;-1.214;2022-08-11T15:40:04;7;6;
47982;PMS5003;33751;50.816;-1.214;2022-08-11T15:42:38;5;5;
47982;PMS5003;33751;50.816;-1.214;2022-08-11T15:45:10;6;6;
47982;PMS5003;33751;50.816;-1.214;2022-08-11T15:47:40;5;5;
47982;PMS5003;33751;50.816;-1.214;2022-08-11T15:50:12;4;4;
47982;PMS5003;33751;50.816;-1.214;2022-08-11T15:52:51;5;5;
47982;PMS5003;33751;50.816;-1.214;2022-08-11T15:55:22;4;4;
47982;PMS5003;33751;50.816;-1.214;2022-08-11T15:57:52;5;3;
47982;PMS5003;33751;50.816;-1.214;2022-08-11T16:00:19;4;4;
47982;PMS5003;33751;50.816;-1.214;2022-08-11T16:02:47;5;5;
47982;PMS5003;33751;50.816;-1.214;2022-08-11T16:05:15;5;5;
47982;PMS5003;33751;50.816;-1.214;2022-08-11T16:07:42;6;6;
47982;PMS5003;33751;50.816;-1.214;2022-08-11T16:10:11;4;4;
47982;PMS5003;33751;50.816;-1.214;2022-08-11T16:12:41;7;5;
47982;PMS5003;33751;50.816;-1.214;2022-08-11T16:15:12;7;5;
47982;PMS5003;33751;50.816;-1.214;2022-08-11T16:17:40;4;4;
47982;PMS5003;33751;50.816;-1.214;2022-08-11T16:20:11;5;5;
47982;PMS5003;33751;50.816;-1.214;2022-08-11T16:22:39;6;5;
47982;PMS5003;33751;50.816;-1.214;2022-08-11T16:25:08;6;6;
47982;PMS5003;33751;50.816;-1.214;2022-08-11T16:27:39;4;4;
47982;PMS5003;33751;50.816;-1.214;2022-08-11T16:30:08;7;4;
47982;PMS5003;33751;50.816;-1.214;2022-08-11T16:32:38;5;5;
47982;PMS5003;33751;50.816;-1.214;2022-08-11T16:35:08;5;5;
47982;PMS5003;33751;50.816;-1.214;2022-08-11T16:37:38;5;5;
47982;PMS5003;33751;50.816;-1.214;2022-08-11T16:40:07;7;6;
47982;PMS5003;33751;50.816;-1.214;2022-08-11T16:42:36;5;5;
47982;PMS5003;33751;50.816;-1.214;2022-08-11T16:45:04;4;4;
47982;PMS5003;33751;50.816;-1.214;2022-08-11T16:47:32;5;5;
47982;PMS5003;33751;50.816;-1.214;2022-08-11T16:50:00;5;5;
47982;PMS5003;33751;50.816;-1.214;2022-08-11T16:52:28;3;3;
47982;PMS5003;33751;50.816;-1.214;2022-08-11T16:54:55;6;4;
47982;PMS5003;33751;50.816;-1.214;2022-08-11T16:57:22;5;5;
47982;PMS5003;33751;50.816;-1.214;2022-08-11T16:59:52;4;4;
47982;PMS5003;33751;50.816;-1.214;2022-08-11T17:02:21;8;6;